Time;durP1;ratioP1;P1;durP2;ratioP2;P2;SDS_P1;SDS_P2;PMS_P1;PMS_P2;Temp;Humidity;BMP_temperature;BMP_pressure;BME280_temperature;BME280_humidity;BME280_pressure;Samples;Min_cycle;Max_cycle;Signal;HPM_P1;HPM_P2
2021/05/15 00:01:30;;;;;;;14.68;12.60;;;7.50;93.70;;;;;;5068951;28;20045;-70
2021/05/15 00:03:57;;;;;;;13.95;12.20;;;7.40;94.00;;;;;;5050922;28;20041;-70
2021/05/15 00:06:23;;;;;;;14.18;12.20;;;7.40;94.10;;;;;;5058159;28;20543;-70
2021/05/15 00:08:50;;;;;;;14.20;10.13;;;7.40;94.20;;;;;;5047902;28;20525;-70
2021/05/15 00:11:17;;;;;;;15.85;10.27;;;7.40;94.20;;;;;;5054994;28;20040;-70
2021/05/15 00:13:44;;;;;;;13.40;11.05;;;7.40;94.00;;;;;;5051649;28;20037;-70
2021/05/15 00:16:10;;;;;;;12.20;10.73;;;7.50;94.10;;;;;;5052347;28;20058;-70
2021/05/15 00:18:36;;;;;;;14.05;10.38;;;7.60;93.90;;;;;;5049089;28;20045;-70
2021/05/15 00:21:02;;;;;;;11.52;10.18;;;7.70;93.90;;;;;;5049732;28;20033;-70
2021/05/15 00:23:27;;;;;;;13.80;10.65;;;7.80;93.80;;;;;;5058557;28;20048;-70
2021/05/15 00:25:54;;;;;;;13.10;10.30;;;7.80;93.80;;;;;;5051253;28;20462;-70
2021/05/15 00:28:20;;;;;;;13.57;11.50;;;7.90;93.60;;;;;;5051965;28;20357;-70
2021/05/15 00:30:45;;;;;;;11.90;10.48;;;7.90;93.60;;;;;;5068702;28;20032;-70
2021/05/15 00:33:11;;;;;;;13.13;10.85;;;7.80;93.70;;;;;;5047620;28;20033;-71
2021/05/15 00:35:37;;;;;;;13.02;10.65;;;7.70;93.70;;;;;;5046290;28;20041;-71
2021/05/15 00:38:03;;;;;;;13.57;10.50;;;7.70;93.80;;;;;;5049142;28;20504;-71
2021/05/15 00:40:28;;;;;;;11.82;10.55;;;7.70;93.80;;;;;;5048819;28;20040;-71
2021/05/15 00:42:55;;;;;;;11.90;10.30;;;7.60;93.70;;;;;;5049314;28;20547;-71
2021/05/15 00:45:20;;;;;;;13.40;10.70;;;7.60;93.60;;;;;;5054290;28;20115;-71
2021/05/15 00:47:46;;;;;;;12.02;10.35;;;7.60;93.50;;;;;;5061785;28;20514;-71
2021/05/15 00:50:12;;;;;;;11.60;9.63;;;7.60;93.50;;;;;;5051784;28;20037;-71
2021/05/15 00:52:38;;;;;;;11.40;9.70;;;7.60;93.40;;;;;;5052696;28;20392;-71
2021/05/15 00:55:10;;;;;;;13.23;10.63;;;7.60;93.50;;;;;;5069866;28;20545;-71
2021/05/15 00:57:37;;;;;;;12.10;10.57;;;7.50;93.20;;;;;;5057250;28;20040;-70
2021/05/15 01:00:05;;;;;;;12.35;10.73;;;7.50;93.30;;;;;;5053913;28;20106;-70
2021/05/15 01:02:32;;;;;;;13.60;10.50;;;7.50;93.40;;;;;;5065517;28;20553;-71
2021/05/15 01:04:57;;;;;;;11.30;9.50;;;7.40;93.40;;;;;;5050689;28;20124;-70
2021/05/15 01:07:23;;;;;;;14.32;11.20;;;7.30;93.50;;;;;;5052232;28;20098;-71
2021/05/15 01:09:49;;;;;;;15.07;11.02;;;7.30;93.60;;;;;;5058566;28;20041;-71
2021/05/15 01:12:14;;;;;;;13.95;11.80;;;7.10;93.60;;;;;;5050919;28;20033;-70
2021/05/15 01:14:40;;;;;;;12.90;10.38;;;7.00;93.80;;;;;;5050040;28;20033;-71
2021/05/15 01:17:10;;;;;;;13.80;11.07;;;7.00;93.60;;;;;;5049475;28;20036;-70
2021/05/15 01:19:37;;;;;;;12.18;10.57;;;7.00;93.60;;;;;;5047673;28;20037;-71
2021/05/15 01:22:12;;;;;;;15.57;11.55;;;7.00;93.60;;;;;;5053988;28;20044;-70
2021/05/15 01:24:40;;;;;;;16.13;11.60;;;7.00;93.60;;;;;;5067638;28;20131;-70
2021/05/15 01:27:10;;;;;;;13.13;11.13;;;6.90;93.90;;;;;;5047203;28;20044;-70
2021/05/15 01:29:36;;;;;;;14.40;11.57;;;6.90;93.90;;;;;;5048909;28;20284;-70
2021/05/15 01:32:03;;;;;;;14.23;11.18;;;6.90;94.30;;;;;;5048648;28;20037;-70
2021/05/15 01:34:28;;;;;;;13.27;10.23;;;7.00;94.30;;;;;;5064932;28;20513;-70
2021/05/15 01:36:54;;;;;;;13.75;11.02;;;7.00;94.30;;;;;;5053981;28;20040;-70
2021/05/15 01:39:20;;;;;;;10.73;8.93;;;7.00;94.10;;;;;;5049655;28;20073;-70
2021/05/15 01:41:46;;;;;;;10.52;8.65;;;7.10;94.00;;;;;;5045761;28;20036;-71
2021/05/15 01:44:13;;;;;;;14.13;9.68;;;7.10;94.10;;;;;;5056731;28;20125;-71
2021/05/15 01:46:39;;;;;;;13.52;9.85;;;7.10;94.20;;;;;;5066408;28;20043;-71
2021/05/15 01:49:05;;;;;;;14.52;10.63;;;7.20;94.50;;;;;;5048458;28;20045;-71
2021/05/15 01:51:32;;;;;;;14.10;11.38;;;7.20;94.40;;;;;;5048185;28;20080;-71
2021/05/15 01:53:58;;;;;;;13.65;10.70;;;7.20;94.30;;;;;;5058622;28;20242;-71
2021/05/15 01:56:25;;;;;;;14.85;11.38;;;7.20;94.00;;;;;;5050273;28;20090;-70
2021/05/15 01:58:52;;;;;;;13.45;10.70;;;7.20;94.00;;;;;;5048362;28;20406;-70
2021/05/15 02:01:19;;;;;;;15.75;12.10;;;7.20;94.10;;;;;;5060229;28;20036;-69
2021/05/15 02:03:45;;;;;;;15.85;11.90;;;7.20;94.20;;;;;;5048763;28;20071;-70
2021/05/15 02:06:12;;;;;;;14.43;11.93;;;7.30;94.30;;;;;;5061044;28;20033;-69
2021/05/15 02:08:38;;;;;;;15.48;11.77;;;7.30;94.30;;;;;;5054212;28;20131;-69
2021/05/15 02:11:04;;;;;;;16.85;12.48;;;7.40;94.10;;;;;;5063346;28;20508;-69
2021/05/15 02:13:31;;;;;;;15.73;11.98;;;7.40;94.20;;;;;;5054470;28;20071;-70
2021/05/15 02:15:59;;;;;;;14.77;11.68;;;7.40;94.10;;;;;;5054917;28;20107;-69
2021/05/15 02:18:25;;;;;;;15.18;12.23;;;7.50;94.30;;;;;;5055068;28;20044;-69
2021/05/15 02:20:51;;;;;;;15.75;12.88;;;7.60;94.20;;;;;;5047295;28;20032;-70
2021/05/15 02:23:17;;;;;;;16.90;13.20;;;7.60;94.50;;;;;;5064403;28;20490;-69
2021/05/15 02:25:45;;;;;;;15.07;12.07;;;7.60;94.20;;;;;;5066411;28;20079;-69
2021/05/15 02:28:12;;;;;;;14.75;13.07;;;7.60;94.20;;;;;;5056645;28;20494;-69
2021/05/15 02:30:38;;;;;;;14.85;12.00;;;7.70;94.20;;;;;;5048130;28;20061;-70
2021/05/15 02:33:04;;;;;;;15.70;12.55;;;7.70;94.30;;;;;;5057940;28;20072;-70
2021/05/15 02:35:30;;;;;;;15.35;13.23;;;7.80;94.30;;;;;;5048344;28;20037;-69
2021/05/15 02:37:56;;;;;;;18.55;12.75;;;7.80;94.50;;;;;;5045525;28;20398;-69
2021/05/15 02:40:26;;;;;;;15.45;12.98;;;7.80;94.50;;;;;;5049041;28;20047;-70
2021/05/15 02:42:52;;;;;;;15.68;13.40;;;7.90;94.60;;;;;;5052068;28;20037;-71
2021/05/15 02:45:21;;;;;;;17.73;13.88;;;7.90;94.60;;;;;;5049851;28;20505;-71
2021/05/15 02:47:48;;;;;;;15.98;12.75;;;7.80;94.70;;;;;;5048995;28;20098;-70
2021/05/15 02:50:15;;;;;;;15.07;12.00;;;7.70;94.80;;;;;;5048169;28;20055;-71
2021/05/15 02:52:42;;;;;;;15.00;11.63;;;7.60;94.80;;;;;;5049004;28;20059;-71
2021/05/15 02:55:11;;;;;;;13.95;12.02;;;7.60;94.70;;;;;;5048609;28;20044;-70
2021/05/15 02:57:37;;;;;;;14.00;11.95;;;7.60;94.70;;;;;;5046934;28;20064;-71
2021/05/15 03:00:05;;;;;;;14.70;11.77;;;7.60;94.70;;;;;;5048873;28;20417;-70
2021/05/15 03:02:31;;;;;;;15.20;12.52;;;7.60;94.60;;;;;;5048644;28;20056;-70
2021/05/15 03:04:56;;;;;;;16.08;12.77;;;7.60;94.70;;;;;;5060473;28;20526;-71
2021/05/15 03:07:22;;;;;;;15.25;13.05;;;7.60;94.80;;;;;;5054918;28;20041;-71
2021/05/15 03:09:48;;;;;;;16.05;12.35;;;7.60;95.00;;;;;;5045318;22;20475;-68
2021/05/15 03:12:13;;;;;;;16.10;12.45;;;7.60;94.70;;;;;;5028310;28;20041;-67
2021/05/15 03:14:39;;;;;;;18.90;12.82;;;7.60;94.60;;;;;;5038692;28;20045;-67
2021/05/15 03:17:05;;;;;;;17.65;13.55;;;7.60;94.60;;;;;;5032745;28;20067;-67
2021/05/15 03:19:31;;;;;;;16.48;13.60;;;7.60;94.70;;;;;;5043167;28;20037;-67
2021/05/15 03:21:57;;;;;;;19.27;13.55;;;7.60;94.70;;;;;;5030788;28;20025;-68
2021/05/15 03:24:23;;;;;;;18.20;13.05;;;7.50;95.00;;;;;;5033587;28;20037;-67
2021/05/15 03:26:49;;;;;;;17.63;13.68;;;7.40;95.20;;;;;;5030075;28;20412;-67
2021/05/15 03:29:15;;;;;;;16.15;12.85;;;7.40;95.10;;;;;;5031848;28;20483;-67
2021/05/15 03:31:40;;;;;;;15.93;12.70;;;7.40;95.10;;;;;;5031693;28;20048;-67
2021/05/15 03:34:08;;;;;;;18.13;13.23;;;7.40;95.00;;;;;;5033576;28;20045;-67
2021/05/15 03:36:34;;;;;;;17.38;13.40;;;7.40;95.00;;;;;;5029638;28;20537;-68
2021/05/15 03:39:00;;;;;;;17.27;14.23;;;7.50;95.10;;;;;;5024039;28;20049;-67
2021/05/15 03:41:27;;;;;;;19.67;13.05;;;7.50;95.10;;;;;;5036532;28;20444;-67
2021/05/15 03:43:52;;;;;;;18.15;14.20;;;7.50;95.20;;;;;;5031774;28;20068;-67
2021/05/15 03:46:18;;;;;;;18.13;13.43;;;7.60;94.80;;;;;;5030978;28;20103;-68
2021/05/15 03:48:44;;;;;;;18.75;13.85;;;7.60;95.00;;;;;;5028800;28;20038;-67
2021/05/15 03:51:10;;;;;;;21.77;14.40;;;7.70;95.10;;;;;;5042856;28;20083;-67
2021/05/15 03:53:37;;;;;;;17.60;13.20;;;7.70;95.00;;;;;;5030135;28;20041;-67
2021/05/15 03:56:03;;;;;;;17.80;13.73;;;7.70;94.90;;;;;;5029454;28;20666;-68
2021/05/15 03:58:28;;;;;;;15.88;12.98;;;7.70;94.70;;;;;;5028973;28;20044;-67
2021/05/15 04:00:54;;;;;;;18.63;14.27;;;7.70;94.70;;;;;;5035575;28;20033;-68
2021/05/15 04:03:20;;;;;;;16.08;13.00;;;7.70;94.70;;;;;;5029820;28;20072;-67
2021/05/15 04:05:45;;;;;;;18.13;13.57;;;7.80;94.80;;;;;;5047240;28;20045;-67
2021/05/15 04:08:11;;;;;;;18.35;13.95;;;7.80;94.80;;;;;;5044352;28;20076;-68
2021/05/15 04:10:37;;;;;;;20.85;15.02;;;7.90;94.80;;;;;;5019818;28;20046;-68
2021/05/15 04:13:18;;;;;;;20.98;14.93;;;7.90;95.00;;;;;;5029854;28;20120;-67
2021/05/15 04:15:57;;;;;;;19.73;14.77;;;7.90;95.00;;;;;;5041625;28;20455;-68
2021/05/15 04:18:24;;;;;;;18.35;14.02;;;8.00;95.00;;;;;;5031684;28;20211;-67
2021/05/15 04:20:50;;;;;;;21.27;15.23;;;8.10;94.90;;;;;;5028210;28;20044;-67
2021/05/15 04:23:15;;;;;;;22.08;16.23;;;8.10;94.80;;;;;;5030087;28;20038;-68
2021/05/15 04:25:41;;;;;;;19.40;15.85;;;8.20;94.70;;;;;;5025264;28;20546;-68
2021/05/15 04:28:08;;;;;;;23.00;16.00;;;8.20;94.40;;;;;;5030417;28;20128;-67
2021/05/15 04:30:34;;;;;;;24.00;17.15;;;8.30;94.50;;;;;;5035097;28;20116;-67
2021/05/15 04:33:01;;;;;;;23.92;16.67;;;8.30;94.50;;;;;;5029482;28;20045;-67
2021/05/15 04:35:27;;;;;;;21.52;16.63;;;8.30;94.30;;;;;;5032810;28;20060;-68
2021/05/15 04:37:53;;;;;;;23.35;16.80;;;8.30;94.10;;;;;;5029724;28;20041;-68
2021/05/15 04:40:19;;;;;;;22.00;15.48;;;8.30;94.20;;;;;;5031489;28;20406;-68
2021/05/15 04:42:45;;;;;;;22.90;16.83;;;8.30;94.00;;;;;;5029580;28;20043;-68
2021/05/15 04:45:14;;;;;;;23.00;16.70;;;8.40;94.00;;;;;;5030910;28;20030;-68
2021/05/15 04:47:41;;;;;;;23.13;16.27;;;8.40;93.90;;;;;;5029022;28;20054;-68
2021/05/15 04:50:09;;;;;;;23.08;15.93;;;8.50;93.40;;;;;;5025067;28;20044;-68
2021/05/15 04:52:34;;;;;;;25.20;17.13;;;8.50;93.80;;;;;;5028466;28;20041;-67
2021/05/15 04:55:00;;;;;;;20.67;15.85;;;8.60;93.70;;;;;;5027681;28;20041;-68
2021/05/15 04:57:26;;;;;;;21.23;16.80;;;8.70;93.40;;;;;;5033756;28;20037;-67
2021/05/15 04:59:51;;;;;;;25.00;17.45;;;8.80;93.80;;;;;;5029744;28;20055;-68
2021/05/15 05:02:17;;;;;;;23.00;17.55;;;8.80;94.00;;;;;;5042004;28;20061;-67
2021/05/15 05:04:43;;;;;;;22.17;17.25;;;8.90;93.50;;;;;;5029510;28;20505;-68
2021/05/15 05:07:08;;;;;;;26.48;17.80;;;8.90;93.40;;;;;;5034272;28;20572;-68
2021/05/15 05:09:34;;;;;;;23.10;17.08;;;8.90;93.70;;;;;;5033719;28;20045;-67
2021/05/15 05:12:00;;;;;;;24.38;16.88;;;8.90;93.50;;;;;;5043463;28;20072;-68
2021/05/15 05:14:25;;;;;;;23.52;17.58;;;8.90;93.40;;;;;;5030919;28;20033;-67
2021/05/15 05:16:55;;;;;;;23.90;16.90;;;9.00;93.40;;;;;;5030554;28;20493;-67
2021/05/15 05:19:22;;;;;;;23.88;16.67;;;9.00;93.40;;;;;;5030792;28;20068;-67
2021/05/15 05:21:48;;;;;;;24.13;17.75;;;9.00;93.30;;;;;;5020873;28;20064;-67
2021/05/15 05:24:13;;;;;;;24.05;17.02;;;8.90;93.30;;;;;;5032551;28;20120;-68
2021/05/15 05:26:39;;;;;;;21.67;16.45;;;8.90;93.40;;;;;;5030834;28;20482;-67
2021/05/15 05:29:09;;;;;;;24.73;17.52;;;8.90;93.30;;;;;;5029616;28;20041;-67
2021/05/15 05:31:43;;;;;;;20.85;16.58;;;8.90;93.00;;;;;;5029958;28;20033;-68
2021/05/15 05:34:08;;;;;;;21.40;16.48;;;9.00;93.40;;;;;;5019087;28;20495;-68
2021/05/15 05:36:35;;;;;;;21.92;17.40;;;9.10;93.40;;;;;;5029318;28;20075;-68
2021/05/15 05:39:04;;;;;;;24.00;16.95;;;9.10;93.40;;;;;;5030299;28;20041;-68
2021/05/15 05:41:30;;;;;;;24.25;17.75;;;9.10;93.00;;;;;;5028706;28;20041;-67
2021/05/15 05:43:55;;;;;;;20.08;15.30;;;9.10;93.30;;;;;;5027229;28;20033;-67
2021/05/15 05:46:21;;;;;;;23.60;17.52;;;9.20;92.50;;;;;;5031920;28;20037;-67
2021/05/15 05:48:47;;;;;;;22.50;16.23;;;9.10;93.00;;;;;;5029484;28;20103;-67
2021/05/15 05:51:13;;;;;;;24.85;16.65;;;9.10;93.10;;;;;;5030393;28;20344;-67
2021/05/15 05:53:39;;;;;;;21.80;16.38;;;9.10;92.50;;;;;;5030532;28;20068;-67
2021/05/15 05:56:05;;;;;;;24.63;17.30;;;9.10;92.20;;;;;;5031481;28;20112;-67
2021/05/15 05:58:31;;;;;;;22.95;17.88;;;9.20;92.70;;;;;;5030639;28;20523;-68
2021/05/15 06:00:57;;;;;;;21.58;16.60;;;9.30;92.60;;;;;;5044298;28;20051;-67
2021/05/15 06:03:23;;;;;;;23.02;17.20;;;9.40;92.50;;;;;;5040684;28;20099;-68
2021/05/15 06:05:49;;;;;;;21.45;15.45;;;9.40;92.80;;;;;;5031719;28;20072;-68
2021/05/15 06:08:14;;;;;;;20.00;16.35;;;9.50;91.80;;;;;;5029668;28;20416;-67
2021/05/15 06:10:41;;;;;;;22.00;16.25;;;9.50;91.90;;;;;;5025528;28;20039;-67
2021/05/15 06:13:08;;;;;;;21.77;15.27;;;9.50;92.10;;;;;;5019066;28;20398;-68
2021/05/15 06:15:35;;;;;;;19.15;14.77;;;9.60;91.90;;;;;;5026198;28;20128;-68
2021/05/15 06:18:00;;;;;;;21.20;15.93;;;9.60;91.50;;;;;;5027602;28;20177;-67
2021/05/15 06:20:26;;;;;;;21.95;15.73;;;9.60;91.60;;;;;;5032689;28;20045;-67
2021/05/15 06:22:52;;;;;;;21.67;16.42;;;9.60;91.70;;;;;;5031536;28;20399;-68
2021/05/15 06:25:18;;;;;;;22.88;16.02;;;9.70;92.50;;;;;;5028834;28;20518;-67
2021/05/15 06:27:43;;;;;;;21.83;16.50;;;9.80;92.30;;;;;;5028276;28;20037;-68
2021/05/15 06:30:10;;;;;;;21.42;16.52;;;9.90;91.90;;;;;;5043393;28;20049;-67
2021/05/15 06:32:35;;;;;;;19.65;15.27;;;10.00;91.50;;;;;;5025938;28;20041;-67
2021/05/15 06:35:01;;;;;;;23.67;17.10;;;10.10;91.10;;;;;;5050856;28;20069;-67
2021/05/15 06:37:26;;;;;;;21.05;17.02;;;10.00;91.30;;;;;;5023914;28;20037;-67
2021/05/15 06:39:52;;;;;;;19.33;15.00;;;10.10;91.30;;;;;;5024569;28;20483;-67
2021/05/15 06:42:18;;;;;;;19.65;14.45;;;10.10;90.80;;;;;;5029276;28;20040;-67
2021/05/15 06:44:43;;;;;;;19.40;15.85;;;10.10;91.10;;;;;;5039837;28;20033;-68
2021/05/15 06:47:12;;;;;;;19.73;14.98;;;10.20;90.20;;;;;;5035924;28;20041;-67
2021/05/15 06:49:38;;;;;;;20.60;15.90;;;10.20;90.10;;;;;;5034634;28;20037;-67
2021/05/15 06:52:04;;;;;;;23.17;15.73;;;10.30;90.20;;;;;;5043629;28;20128;-67
2021/05/15 06:54:30;;;;;;;19.95;15.60;;;10.30;90.50;;;;;;5030323;28;20117;-69
2021/05/15 06:56:56;;;;;;;18.98;14.68;;;10.40;90.20;;;;;;5033389;28;20025;-68
2021/05/15 06:59:21;;;;;;;21.17;15.63;;;10.50;90.20;;;;;;5033624;28;20116;-67
2021/05/15 07:01:47;;;;;;;19.75;14.68;;;10.60;89.50;;;;;;5033802;28;20550;-67
2021/05/15 07:04:13;;;;;;;19.90;16.08;;;10.70;88.90;;;;;;5035674;28;20041;-68
2021/05/15 07:06:39;;;;;;;21.30;15.80;;;10.60;90.10;;;;;;5032844;28;20423;-67
2021/05/15 07:09:06;;;;;;;20.30;15.70;;;10.70;89.00;;;;;;5031883;28;20089;-67
2021/05/15 07:11:31;;;;;;;18.48;14.07;;;10.70;88.70;;;;;;5035961;28;20037;-67
2021/05/15 07:13:57;;;;;;;19.48;15.23;;;10.70;88.50;;;;;;5037635;28;20075;-67
2021/05/15 07:16:23;;;;;;;20.33;15.88;;;10.80;88.60;;;;;;5032073;28;20076;-67
2021/05/15 07:18:49;;;;;;;21.30;15.52;;;10.80;89.20;;;;;;5033367;28;20090;-68
2021/05/15 07:21:14;;;;;;;16.23;14.05;;;10.80;88.00;;;;;;5029160;28;20052;-67
2021/05/15 07:23:41;;;;;;;15.75;13.48;;;10.80;86.50;;;;;;5033122;28;20104;-67
2021/05/15 07:26:08;;;;;;;19.05;15.32;;;10.80;85.80;;;;;;5034892;28;20041;-67
2021/05/15 07:28:34;;;;;;;19.30;14.55;;;10.90;87.10;;;;;;5041069;28;20048;-67
2021/05/15 07:31:00;;;;;;;20.40;15.55;;;10.80;86.40;;;;;;5044395;28;20044;-67
2021/05/15 07:33:26;;;;;;;18.83;13.75;;;10.80;88.50;;;;;;5048055;28;20040;-67
2021/05/15 07:35:52;;;;;;;17.42;14.45;;;10.80;88.80;;;;;;5039040;28;20033;-67
2021/05/15 07:38:19;;;;;;;19.67;14.75;;;10.80;89.10;;;;;;5051342;28;20041;-67
2021/05/15 07:40:44;;;;;;;17.67;13.38;;;10.80;89.50;;;;;;5041296;28;20108;-67
2021/05/15 07:43:10;;;;;;;20.67;15.43;;;10.80;86.60;;;;;;5032794;28;20189;-67
2021/05/15 07:45:36;;;;;;;18.80;14.15;;;10.80;88.80;;;;;;5031688;28;20044;-67
2021/05/15 07:48:02;;;;;;;18.90;15.52;;;10.80;88.50;;;;;;5024597;28;20044;-67
2021/05/15 07:50:29;;;;;;;18.77;14.75;;;10.80;88.50;;;;;;5031182;28;20087;-67
2021/05/15 07:52:55;;;;;;;18.77;14.10;;;10.80;89.10;;;;;;5031701;28;20041;-66
2021/05/15 07:55:21;;;;;;;20.02;14.85;;;10.90;86.90;;;;;;5031940;28;20039;-67
2021/05/15 07:57:47;;;;;;;20.50;15.02;;;11.10;87.60;;;;;;5031225;28;20060;-67
2021/05/15 08:00:14;;;;;;;19.80;15.15;;;11.20;86.30;;;;;;5033629;28;20073;-67
2021/05/15 08:02:40;;;;;;;18.15;13.82;;;11.30;85.80;;;;;;5030818;28;20042;-67
2021/05/15 08:05:07;;;;;;;19.40;15.20;;;11.50;84.50;;;;;;5033256;28;20633;-68
2021/05/15 08:07:33;;;;;;;17.98;14.80;;;11.60;84.40;;;;;;5031828;28;20124;-67
2021/05/15 08:09:58;;;;;;;17.75;14.13;;;11.80;83.20;;;;;;5031674;28;20551;-67
2021/05/15 08:12:24;;;;;;;18.80;14.95;;;11.90;84.30;;;;;;5031788;28;20037;-67
2021/05/15 08:14:49;;;;;;;22.95;16.17;;;11.90;84.10;;;;;;5030180;28;20048;-67
2021/05/15 08:17:15;;;;;;;21.45;15.77;;;11.90;84.80;;;;;;5030664;28;20037;-67
2021/05/15 08:19:41;;;;;;;21.10;15.48;;;11.80;84.00;;;;;;5031451;28;20476;-67
2021/05/15 08:22:06;;;;;;;16.83;13.32;;;11.80;85.10;;;;;;5031517;28;20041;-67
2021/05/15 08:24:32;;;;;;;16.60;14.27;;;11.90;84.70;;;;;;5031764;28;20065;-67
2021/05/15 08:26:58;;;;;;;20.10;16.42;;;11.80;83.90;;;;;;5033760;28;20121;-67
2021/05/15 08:29:24;;;;;;;22.77;15.52;;;11.80;85.90;;;;;;5031531;28;20088;-67
2021/05/15 08:31:50;;;;;;;23.98;16.42;;;11.80;85.80;;;;;;5030344;28;20711;-67
2021/05/15 08:34:16;;;;;;;18.73;15.13;;;11.80;84.50;;;;;;5030237;28;20030;-67
2021/05/15 08:36:42;;;;;;;17.40;14.32;;;11.90;83.20;;;;;;5030365;28;20065;-67
2021/05/15 08:39:08;;;;;;;20.83;15.80;;;12.10;82.60;;;;;;5037724;28;20044;-67
2021/05/15 08:41:34;;;;;;;20.85;15.70;;;12.30;79.70;;;;;;5051456;28;20099;-67
2021/05/15 08:44:03;;;;;;;20.23;15.63;;;12.40;80.00;;;;;;5030763;28;20482;-67
2021/05/15 08:46:31;;;;;;;21.45;15.60;;;12.40;83.40;;;;;;5031712;28;20042;-72
2021/05/15 08:49:01;;;;;;;21.95;16.98;;;12.40;80.20;;;;;;5032550;28;20029;-67
2021/05/15 08:51:28;;;;;;;21.53;17.20;;;12.30;82.30;;;;;;5030035;28;20041;-67
2021/05/15 08:53:57;;;;;;;24.15;16.83;;;12.20;82.30;;;;;;5030807;28;20061;-67
2021/05/15 08:56:23;;;;;;;24.73;18.45;;;12.20;82.30;;;;;;5031296;28;20380;-67
2021/05/15 08:58:49;;;;;;;26.83;17.02;;;12.20;82.80;;;;;;5026684;28;20068;-67
2021/05/15 09:01:15;;;;;;;22.80;16.95;;;12.20;82.50;;;;;;5046152;28;20040;-67
2021/05/15 09:03:42;;;;;;;38.53;20.75;;;12.30;80.20;;;;;;5029099;28;20052;-67
2021/05/15 09:06:08;;;;;;;29.48;19.27;;;12.30;80.90;;;;;;5030360;28;20076;-67
2021/05/15 09:08:34;;;;;;;28.17;20.20;;;12.30;81.40;;;;;;5047604;22;20072;-66
2021/05/15 09:11:00;;;;;;;34.22;22.17;;;12.40;79.20;;;;;;5070640;28;20040;-67
2021/05/15 09:13:28;;;;;;;32.50;22.52;;;12.30;81.50;;;;;;5055596;28;20349;-66
2021/05/15 09:15:59;;;;;;;31.92;21.23;;;12.30;82.30;;;;;;5062193;28;20128;-67
2021/05/15 09:18:32;;;;;;;34.03;21.17;;;12.20;83.50;;;;;;5066581;28;20043;-67
2021/05/15 09:21:02;;;;;;;32.50;21.10;;;12.30;82.80;;;;;;5071182;28;20290;-67
2021/05/15 09:23:31;;;;;;;32.28;21.60;;;12.30;83.10;;;;;;5068921;28;20500;-66
2021/05/15 09:26:08;;;;;;;37.53;23.52;;;12.40;81.40;;;;;;5054742;28;20115;-67
2021/05/15 09:28:35;;;;;;;34.45;21.98;;;12.40;84.30;;;;;;5053106;28;20067;-66
2021/05/15 09:31:13;;;;;;;37.22;23.92;;;12.50;82.40;;;;;;5063952;28;20485;-67
2021/05/15 09:33:41;;;;;;;33.83;21.77;;;12.60;82.80;;;;;;5067615;28;20374;-66
2021/05/15 09:36:17;;;;;;;30.33;22.77;;;12.60;82.20;;;;;;5060430;28;20138;-67
2021/05/15 09:38:43;;;;;;;32.10;21.92;;;12.70;80.70;;;;;;5066162;28;20036;-67
2021/05/15 09:41:10;;;;;;;31.63;22.13;;;12.70;80.60;;;;;;5067044;28;20115;-66
2021/05/15 09:43:36;;;;;;;36.90;24.13;;;12.80;80.40;;;;;;5065536;28;20446;-67
2021/05/15 09:46:02;;;;;;;38.60;25.83;;;12.70;82.90;;;;;;5063365;28;20041;-66
2021/05/15 09:48:37;;;;;;;33.20;24.00;;;12.70;84.90;;;;;;5067468;28;20036;-66
2021/05/15 09:51:17;;;;;;;34.10;23.98;;;12.70;83.10;;;;;;5060371;28;20134;-66
2021/05/15 09:53:44;;;;;;;36.00;24.95;;;12.70;82.70;;;;;;5068011;28;20033;-67
2021/05/15 09:56:11;;;;;;;34.20;22.55;;;12.90;80.10;;;;;;5065985;28;20038;-67
2021/05/15 09:58:37;;;;;;;31.27;22.13;;;12.80;82.80;;;;;;5068130;28;20430;-67
2021/05/15 10:01:03;;;;;;;27.83;21.95;;;12.90;81.50;;;;;;5068205;28;20036;-67
2021/05/15 10:03:35;;;;;;;29.85;22.00;;;13.10;81.50;;;;;;5064031;28;20025;-67
2021/05/15 10:06:04;;;;;;;32.42;23.20;;;13.30;81.20;;;;;;5066581;28;20486;-67
2021/05/15 10:08:30;;;;;;;33.00;23.08;;;13.40;82.00;;;;;;5066235;28;20036;-66
2021/05/15 10:10:57;;;;;;;31.98;23.27;;;13.50;78.80;;;;;;5068342;28;20436;-67
2021/05/15 10:13:24;;;;;;;32.38;25.58;;;13.60;78.50;;;;;;5065895;28;20097;-67
2021/05/15 10:15:50;;;;;;;31.15;23.98;;;13.70;77.50;;;;;;5064014;28;20552;-67
2021/05/15 10:18:16;;;;;;;28.92;23.13;;;13.80;79.40;;;;;;5064085;28;21299;-68
2021/05/15 10:20:43;;;;;;;32.85;22.83;;;13.80;77.10;;;;;;5066237;28;20098;-67
2021/05/15 10:23:17;;;;;;;28.45;24.00;;;13.80;77.30;;;;;;5071345;28;20041;-66
2021/05/15 10:25:43;;;;;;;31.52;24.55;;;13.90;76.80;;;;;;5071962;28;20112;-66
2021/05/15 10:28:09;;;;;;;30.92;25.00;;;13.90;77.70;;;;;;5064600;28;20066;-67
2021/05/15 10:30:35;;;;;;;29.73;24.15;;;14.00;78.40;;;;;;5068578;28;20040;-67
2021/05/15 10:33:02;;;;;;;32.85;26.33;;;14.10;78.00;;;;;;5062814;28;20069;-66
2021/05/15 10:35:54;;;;;;;32.20;25.33;;;13.90;79.30;;;;;;5062327;28;20041;-67
2021/05/15 10:38:21;;;;;;;29.55;23.85;;;14.10;78.90;;;;;;5058614;28;20048;-67
2021/05/15 10:40:49;;;;;;;34.15;26.23;;;14.30;77.50;;;;;;5071272;28;20048;-67
2021/05/15 10:43:32;;;;;;;29.40;23.77;;;14.40;76.40;;;;;;5073580;28;20478;-67
2021/05/15 10:45:58;;;;;;;33.63;25.95;;;14.60;75.40;;;;;;5072314;28;20629;-67
2021/05/15 10:48:28;;;;;;;31.08;24.88;;;14.60;75.70;;;;;;5062754;28;20132;-67
2021/05/15 10:50:59;;;;;;;27.05;23.63;;;14.60;76.40;;;;;;5054137;28;20041;-67
2021/05/15 10:53:30;;;;;;;29.52;22.95;;;14.60;74.20;;;;;;5071904;28;20048;-67
2021/05/15 10:56:09;;;;;;;34.65;24.48;;;14.60;74.50;;;;;;5070812;28;20037;-67
2021/05/15 10:58:40;;;;;;;28.58;23.00;;;14.70;75.00;;;;;;5052478;28;20045;-67
2021/05/15 11:01:14;;;;;;;27.10;23.48;;;14.80;73.30;;;;;;5066291;28;20036;-67
2021/05/15 11:03:41;;;;;;;30.42;25.48;;;14.70;74.00;;;;;;5055219;28;20056;-67
2021/05/15 11:06:16;;;;;;;28.92;25.25;;;14.70;73.70;;;;;;5068481;28;20037;-67
2021/05/15 11:08:42;;;;;;;30.60;25.40;;;14.60;75.60;;;;;;5071451;28;20044;-67
2021/05/15 11:11:10;;;;;;;32.03;26.35;;;14.70;74.70;;;;;;5072190;28;20123;-67
2021/05/15 11:13:49;;;;;;;31.75;25.10;;;14.70;73.70;;;;;;5069300;28;20481;-67
2021/05/15 11:16:16;;;;;;;34.15;25.70;;;14.70;74.20;;;;;;5061677;28;20528;-67
2021/05/15 11:18:41;;;;;;;33.53;27.55;;;14.60;74.20;;;;;;5060764;28;20476;-67
2021/05/15 11:21:09;;;;;;;32.80;27.25;;;14.50;75.30;;;;;;5062112;28;20501;-67
2021/05/15 11:23:46;;;;;;;34.97;29.05;;;14.40;76.70;;;;;;5063734;28;20094;-66
2021/05/15 11:26:17;;;;;;;33.28;27.77;;;14.30;76.50;;;;;;5070373;28;20052;-66
2021/05/15 11:28:43;;;;;;;34.63;27.90;;;14.40;76.30;;;;;;5072584;28;20147;-66
2021/05/15 11:31:10;;;;;;;35.95;28.70;;;14.30;77.10;;;;;;5073046;28;20115;-66
2021/05/15 11:33:36;;;;;;;34.13;28.30;;;14.30;78.90;;;;;;5071562;28;20068;-67
2021/05/15 11:36:03;;;;;;;34.28;26.95;;;14.50;77.10;;;;;;5072712;28;20032;-66
2021/05/15 11:38:30;;;;;;;33.85;27.35;;;14.70;77.90;;;;;;5071952;28;20089;-66
2021/05/15 11:40:58;;;;;;;34.10;29.55;;;14.80;77.40;;;;;;5072302;28;20040;-66
2021/05/15 11:43:34;;;;;;;30.98;27.27;;;14.80;76.80;;;;;;5071261;28;20040;-66
2021/05/15 11:46:03;;;;;;;31.95;26.45;;;15.00;77.90;;;;;;5072493;28;20036;-66
2021/05/15 11:48:31;;;;;;;31.80;25.35;;;15.20;76.30;;;;;;5072394;28;20485;-67
2021/05/15 11:51:08;;;;;;;30.42;25.77;;;15.50;73.80;;;;;;5072438;28;20048;-66
2021/05/15 11:53:40;;;;;;;29.83;25.55;;;15.70;73.50;;;;;;5071070;28;20048;-66
2021/05/15 11:56:26;;;;;;;33.83;26.75;;;15.70;73.40;;;;;;5072179;28;20040;-66
2021/05/15 11:59:05;;;;;;;30.55;25.00;;;15.90;73.50;;;;;;5072254;28;20482;-66
2021/05/15 12:01:34;;;;;;;28.33;25.23;;;16.20;72.70;;;;;;5070793;28;20036;-66
2021/05/15 12:04:07;;;;;;;27.95;24.77;;;16.50;71.30;;;;;;5070803;28;20048;-66
2021/05/15 12:06:33;;;;;;;26.65;23.67;;;16.70;68.30;;;;;;5072095;28;20059;-66
2021/05/15 12:08:59;;;;;;;25.30;22.55;;;16.70;69.60;;;;;;5070700;28;20048;-66
2021/05/15 12:11:26;;;;;;;26.08;22.35;;;16.70;68.20;;;;;;5072000;28;20052;-67
2021/05/15 12:13:53;;;;;;;27.30;23.85;;;16.70;68.00;;;;;;5071653;28;20033;-67
2021/05/15 12:16:22;;;;;;;25.25;22.08;;;16.70;66.80;;;;;;5072085;28;20076;-66
2021/05/15 12:18:49;;;;;;;25.15;22.52;;;16.70;67.20;;;;;;5070550;28;20095;-67
2021/05/15 12:21:15;;;;;;;28.30;23.50;;;16.80;66.20;;;;;;5070607;28;20077;-67
2021/05/15 12:23:43;;;;;;;26.88;24.05;;;17.00;65.00;;;;;;5070419;28;20469;-69
2021/05/15 12:26:10;;;;;;;27.13;23.80;;;17.10;67.50;;;;;;5070578;28;20039;-68
2021/05/15 12:28:45;;;;;;;25.90;23.10;;;17.20;66.90;;;;;;5071639;28;20044;-67
2021/05/15 12:31:24;;;;;;;27.05;24.10;;;17.40;64.70;;;;;;5071432;28;20045;-67
2021/05/15 12:33:55;;;;;;;26.25;22.63;;;17.20;65.50;;;;;;5071591;28;20412;-67